sensor_id;sensor_type;location;lat;lon;timestamp;pressure;altitude;pressure_sealevel;temperature;humidity
39267;BME280;24967;51.154;13.812;2023-02-16T14:07:34;100145.50;;;12.19;53.58
39267;BME280;24967;51.154;13.812;2023-02-16T14:10:03;100139.28;;;12.66;53.11
39267;BME280;24967;51.154;13.812;2023-02-16T14:12:31;100141.28;;;12.81;51.36
39267;BME280;24967;51.154;13.812;2023-02-16T14:15:03;100150.50;;;12.87;50.68
39267;BME280;24967;51.154;13.812;2023-02-16T14:17:33;100148.22;;;12.74;50.46
39267;BME280;24967;51.154;13.812;2023-02-16T14:20:02;100156.16;;;12.84;50.08
39267;BME280;24967;51.154;13.812;2023-02-16T14:22:38;100155.78;;;12.97;49.95
39267;BME280;24967;51.154;13.812;2023-02-16T14:25:36;100161.50;;;13.02;49.02
39267;BME280;24967;51.154;13.812;2023-02-16T14:28:05;100161.09;;;12.79;49.82
39267;BME280;24967;51.154;13.812;2023-02-16T14:30:53;100161.88;;;12.89;50.32
39267;BME280;24967;51.154;13.812;2023-02-16T14:33:24;100153.00;;;12.89;49.67
39267;BME280;24967;51.154;13.812;2023-02-16T14:36:05;100158.75;;;12.94;50.13
39267;BME280;24967;51.154;13.812;2023-02-16T14:38:35;100154.63;;;12.54;49.44
39267;BME280;24967;51.154;13.812;2023-02-16T14:41:04;100144.81;;;12.54;50.14
39267;BME280;24967;51.154;13.812;2023-02-16T14:43:34;100155.19;;;12.57;50.18
39267;BME280;24967;51.154;13.812;2023-02-16T14:46:29;100156.88;;;12.76;49.92
39267;BME280;24967;51.154;13.812;2023-02-16T14:49:23;100165.59;;;12.78;50.22
39267;BME280;24967;51.154;13.812;2023-02-16T14:52:24;100155.75;;;12.79;50.14
39267;BME280;24967;51.154;13.812;2023-02-16T14:55:38;100154.94;;;12.96;49.72
39267;BME280;24967;51.154;13.812;2023-02-16T14:58:20;100149.44;;;12.80;50.34
39267;BME280;24967;51.154;13.812;2023-02-16T15:00:51;100152.97;;;12.71;50.68
39267;BME280;24967;51.154;13.812;2023-02-16T15:03:20;100154.22;;;12.76;49.82
39267;BME280;24967;51.154;13.812;2023-02-16T15:05:53;100148.22;;;12.74;49.49
39267;BME280;24967;51.154;13.812;2023-02-16T15:08:26;100146.47;;;12.55;49.75
39267;BME280;24967;51.154;13.812;2023-02-16T15:11:01;100153.28;;;12.40;50.28
39267;BME280;24967;51.154;13.812;2023-02-16T15:13:30;100139.81;;;12.42;50.71
39267;BME280;24967;51.154;13.812;2023-02-16T15:15:59;100138.09;;;12.50;50.97
39267;BME280;24967;51.154;13.812;2023-02-16T15:18:27;100140.84;;;12.58;51.19
39267;BME280;24967;51.154;13.812;2023-02-16T15:20:56;100141.44;;;12.80;51.12
39267;BME280;24967;51.154;13.812;2023-02-16T15:23:24;100141.41;;;12.62;51.35
39267;BME280;24967;51.154;13.812;2023-02-16T15:25:55;100139.16;;;12.57;51.72
39267;BME280;24967;51.154;13.812;2023-02-16T15:28:24;100139.75;;;12.79;50.51
39267;BME280;24967;51.154;13.812;2023-02-16T15:30:53;100131.06;;;12.77;50.77
39267;BME280;24967;51.154;13.812;2023-02-16T15:33:32;100133.72;;;12.49;51.23
39267;BME280;24967;51.154;13.812;2023-02-16T15:36:03;100134.13;;;12.27;52.13
39267;BME280;24967;51.154;13.812;2023-02-16T15:38:34;100135.31;;;12.14;51.55
39267;BME280;24967;51.154;13.812;2023-02-16T15:41:05;100134.97;;;12.27;52.01
39267;BME280;24967;51.154;13.812;2023-02-16T15:43:35;100131.94;;;12.12;52.08
39267;BME280;24967;51.154;13.812;2023-02-16T15:46:06;100134.81;;;12.01;52.35
39267;BME280;24967;51.154;13.812;2023-02-16T15:48:40;100134.09;;;11.99;52.44
39267;BME280;24967;51.154;13.812;2023-02-16T15:51:10;100134.16;;;11.60;53.11
39267;BME280;24967;51.154;13.812;2023-02-16T15:53:45;100147.59;;;11.68;53.49
39267;BME280;24967;51.154;13.812;2023-02-16T15:56:25;100132.88;;;11.74;53.05
39267;BME280;24967;51.154;13.812;2023-02-16T15:58:55;100137.53;;;11.43;53.52
39267;BME280;24967;51.154;13.812;2023-02-16T16:01:25;100135.81;;;11.61;52.76
39267;BME280;24967;51.154;13.812;2023-02-16T16:03:57;100131.50;;;11.60;53.27
39267;BME280;24967;51.154;13.812;2023-02-16T16:06:24;100137.53;;;11.43;53.38
39267;BME280;24967;51.154;13.812;2023-02-16T16:08:51;100135.00;;;11.22;53.71
39267;BME280;24967;51.154;13.812;2023-02-16T16:11:17;100128.97;;;10.81;54.86
39267;BME280;24967;51.154;13.812;2023-02-16T16:13:44;100137.25;;;10.88;54.59
39267;BME280;24967;51.154;13.812;2023-02-16T16:16:13;100136.34;;;10.58;55.40
39267;BME280;24967;51.154;13.812;2023-02-16T16:18:43;100137.41;;;10.36;55.63
39267;BME280;24967;51.154;13.812;2023-02-16T16:21:12;100148.56;;;10.30;56.00
39267;BME280;24967;51.154;13.812;2023-02-16T16:23:40;100141.31;;;10.32;56.36
39267;BME280;24967;51.154;13.812;2023-02-16T16:26:16;100143.81;;;10.03;56.83
39267;BME280;24967;51.154;13.812;2023-02-16T16:28:43;100135.41;;;9.77;57.60
39267;BME280;24967;51.154;13.812;2023-02-16T16:31:13;100143.88;;;9.50;58.82
39267;BME280;24967;51.154;13.812;2023-02-16T16:33:54;100140.97;;;9.53;58.10
39267;BME280;24967;51.154;13.812;2023-02-16T16:36:26;100138.66;;;9.38;58.68
39267;BME280;24967;51.154;13.812;2023-02-16T16:39:08;100139.69;;;9.26;58.60
39267;BME280;24967;51.154;13.812;2023-02-16T16:41:35;100137.81;;;9.38;58.96
39267;BME280;24967;51.154;13.812;2023-02-16T16:44:08;100135.41;;;9.77;57.83
39267;BME280;24967;51.154;13.812;2023-02-16T16:46:37;100131.72;;;9.68;57.36
39267;BME280;24967;51.154;13.812;2023-02-16T16:49:11;100135.50;;;9.45;57.94
39267;BME280;24967;51.154;13.812;2023-02-16T16:51:40;100130.84;;;9.05;59.13
39267;BME280;24967;51.154;13.812;2023-02-16T16:54:09;100136.22;;;9.14;58.83
39267;BME280;24967;51.154;13.812;2023-02-16T16:56:38;100134.91;;;9.09;59.32
39267;BME280;24967;51.154;13.812;2023-02-16T16:59:05;100130.19;;;8.80;59.54
39267;BME280;24967;51.154;13.812;2023-02-16T17:01:32;100138.84;;;8.93;60.41
39267;BME280;24967;51.154;13.812;2023-02-16T17:04:00;100132.66;;;8.61;61.09
39267;BME280;24967;51.154;13.812;2023-02-16T17:06:27;100129.66;;;8.54;60.67
39267;BME280;24967;51.154;13.812;2023-02-16T17:08:53;100131.72;;;8.51;61.15
39267;BME280;24967;51.154;13.812;2023-02-16T17:11:23;100125.34;;;8.42;61.58
39267;BME280;24967;51.154;13.812;2023-02-16T17:13:51;100124.47;;;8.30;61.47
39267;BME280;24967;51.154;13.812;2023-02-16T17:16:22;100125.91;;;8.00;62.63
39267;BME280;24967;51.154;13.812;2023-02-16T17:18:49;100132.66;;;7.93;62.35
39267;BME280;24967;51.154;13.812;2023-02-16T17:21:17;100130.38;;;8.00;62.46
39267;BME280;24967;51.154;13.812;2023-02-16T17:23:43;100132.31;;;7.87;63.43
39267;BME280;24967;51.154;13.812;2023-02-16T17:26:10;100135.31;;;7.93;62.83
39267;BME280;24967;51.154;13.812;2023-02-16T17:28:36;100130.38;;;8.00;62.12
39267;BME280;24967;51.154;13.812;2023-02-16T17:31:04;100134.81;;;7.88;62.98
39267;BME280;24967;51.154;13.812;2023-02-16T17:33:31;100131.44;;;7.86;63.22
39267;BME280;24967;51.154;13.812;2023-02-16T17:35:58;100128.19;;;7.83;62.58
39267;BME280;24967;51.154;13.812;2023-02-16T17:38:28;100126.41;;;7.94;62.59
39267;BME280;24967;51.154;13.812;2023-02-16T17:40:56;100122.78;;;8.07;62.47
39267;BME280;24967;51.154;13.812;2023-02-16T17:43:24;100107.25;;;8.13;61.59
39267;BME280;24967;51.154;13.812;2023-02-16T17:45:52;100112.44;;;8.15;61.54
39267;BME280;24967;51.154;13.812;2023-02-16T17:48:21;100104.88;;;7.99;62.05
39267;BME280;24967;51.154;13.812;2023-02-16T17:50:48;100101.59;;;8.07;61.89
39267;BME280;24967;51.154;13.812;2023-02-16T17:53:17;100098.25;;;7.93;61.73
39267;BME280;24967;51.154;13.812;2023-02-16T17:55:45;100113.06;;;7.96;61.50
39267;BME280;24967;51.154;13.812;2023-02-16T17:58:12;100110.25;;;7.86;62.14
39267;BME280;24967;51.154;13.812;2023-02-16T18:00:39;100109.53;;;8.07;60.83
39267;BME280;24967;51.154;13.812;2023-02-16T18:03:07;100106.66;;;7.98;60.47
39267;BME280;24967;51.154;13.812;2023-02-16T18:05:34;100111.59;;;8.03;61.23
39267;BME280;24967;51.154;13.812;2023-02-16T18:08:00;100113.63;;;7.88;61.04
39267;BME280;24967;51.154;13.812;2023-02-16T18:10:32;100108.69;;;7.95;61.06
39267;BME280;24967;51.154;13.812;2023-02-16T18:13:01;100110.75;;;8.14;60.86
39267;BME280;24967;51.154;13.812;2023-02-16T18:15:27;100113.50;;;8.01;60.54
39267;BME280;24967;51.154;13.812;2023-02-16T18:17:54;100114.13;;;8.27;59.70
39267;BME280;24967;51.154;13.812;2023-02-16T18:20:20;100115.53;;;8.20;60.04
39267;BME280;24967;51.154;13.812;2023-02-16T18:22:47;100118.44;;;7.83;60.69
39267;BME280;24967;51.154;13.812;2023-02-16T18:25:13;100122.03;;;7.71;60.63
39267;BME280;24967;51.154;13.812;2023-02-16T18:27:41;100131.03;;;7.68;60.81
39267;BME280;24967;51.154;13.812;2023-02-16T18:30:11;100126.84;;;7.66;60.43
39267;BME280;24967;51.154;13.812;2023-02-16T18:32:38;100124.19;;;7.77;59.67
39267;BME280;24967;51.154;13.812;2023-02-16T18:35:06;100129.38;;;7.78;59.09
39267;BME280;24967;51.154;13.812;2023-02-16T18:37:33;100132.63;;;7.82;59.96
39267;BME280;24967;51.154;13.812;2023-02-16T18:40:00;100140.78;;;7.68;59.17
39267;BME280;24967;51.154;13.812;2023-02-16T18:42:26;100141.28;;;7.73;59.19
39267;BME280;24967;51.154;13.812;2023-02-16T18:44:53;100138.66;;;7.73;59.03
39267;BME280;24967;51.154;13.812;2023-02-16T18:47:21;100129.03;;;7.83;57.90
39267;BME280;24967;51.154;13.812;2023-02-16T18:49:47;100133.97;;;7.88;58.42
39267;BME280;24967;51.154;13.812;2023-02-16T18:52:15;100136.75;;;7.97;57.95
39267;BME280;24967;51.154;13.812;2023-02-16T18:54:41;100130.25;;;8.01;57.73
39267;BME280;24967;51.154;13.812;2023-02-16T18:57:07;100134.00;;;7.99;57.86
39267;BME280;24967;51.154;13.812;2023-02-16T18:59:34;100127.59;;;8.13;56.65
39267;BME280;24967;51.154;13.812;2023-02-16T19:02:01;100132.41;;;8.30;56.35
39267;BME280;24967;51.154;13.812;2023-02-16T19:04:29;100148.44;;;8.51;56.51
39267;BME280;24967;51.154;13.812;2023-02-16T19:06:55;100147.69;;;8.71;55.09
39267;BME280;24967;51.154;13.812;2023-02-16T19:09:23;100152.03;;;8.61;55.21
39267;BME280;24967;51.154;13.812;2023-02-16T19:11:49;100160.31;;;8.79;55.03
39267;BME280;24967;51.154;13.812;2023-02-16T19:14:16;100166.47;;;8.80;54.72
39267;BME280;24967;51.154;13.812;2023-02-16T19:16:43;100159.28;;;8.48;54.85
39267;BME280;24967;51.154;13.812;2023-02-16T19:19:09;100157.81;;;8.55;54.80
39267;BME280;24967;51.154;13.812;2023-02-16T19:21:37;100154.34;;;8.55;55.36
39267;BME280;24967;51.154;13.812;2023-02-16T19:24:05;100146.63;;;8.52;55.39
39267;BME280;24967;51.154;13.812;2023-02-16T19:26:31;100144.56;;;8.55;55.16
39267;BME280;24967;51.154;13.812;2023-02-16T19:28:58;100141.69;;;8.58;54.72
39267;BME280;24967;51.154;13.812;2023-02-16T19:31:27;100139.38;;;8.20;55.34
39267;BME280;24967;51.154;13.812;2023-02-16T19:33:55;100140.63;;;8.38;56.27
39267;BME280;24967;51.154;13.812;2023-02-16T19:36:22;100138.19;;;8.35;56.10
39267;BME280;24967;51.154;13.812;2023-02-16T19:38:50;100135.34;;;8.38;55.99
39267;BME280;24967;51.154;13.812;2023-02-16T19:41:19;100133.25;;;8.31;55.90
39267;BME280;24967;51.154;13.812;2023-02-16T19:43:46;100134.81;;;8.22;56.51
39267;BME280;24967;51.154;13.812;2023-02-16T19:46:13;100140.72;;;8.03;57.28
39267;BME280;24967;51.154;13.812;2023-02-16T19:48:40;100135.91;;;8.08;57.34
39267;BME280;24967;51.154;13.812;2023-02-16T19:51:08;100125.19;;;7.98;57.41
39267;BME280;24967;51.154;13.812;2023-02-16T19:53:36;100133.13;;;7.87;58.69
39267;BME280;24967;51.154;13.812;2023-02-16T19:56:05;100129.53;;;7.99;57.98
39267;BME280;24967;51.154;13.812;2023-02-16T19:58:32;100132.19;;;7.99;58.51
39267;BME280;24967;51.154;13.812;2023-02-16T20:01:04;100134.56;;;7.91;58.66
39267;BME280;24967;51.154;13.812;2023-02-16T20:03:31;100139.88;;;7.91;59.73
39267;BME280;24967;51.154;13.812;2023-02-16T20:05:57;100142.41;;;8.04;59.23
39267;BME280;24967;51.154;13.812;2023-02-16T20:08:24;100136.16;;;8.05;59.62
39267;BME280;24967;51.154;13.812;2023-02-16T20:10:50;100136.16;;;8.27;59.83
39267;BME280;24967;51.154;13.812;2023-02-16T20:13:18;100132.69;;;8.38;59.17
39267;BME280;24967;51.154;13.812;2023-02-16T20:15:44;100144.22;;;8.15;60.04
39267;BME280;24967;51.154;13.812;2023-02-16T20:18:11;100134.34;;;8.28;60.63
39267;BME280;24967;51.154;13.812;2023-02-16T20:20:37;100135.91;;;8.31;61.73
39267;BME280;24967;51.154;13.812;2023-02-16T20:23:04;100133.84;;;8.34;61.43
39267;BME280;24967;51.154;13.812;2023-02-16T20:25:31;100137.00;;;8.39;61.41
39267;BME280;24967;51.154;13.812;2023-02-16T20:27:57;100136.97;;;8.17;62.31
39267;BME280;24967;51.154;13.812;2023-02-16T20:30:25;100133.38;;;8.18;62.98
39267;BME280;24967;51.154;13.812;2023-02-16T20:32:52;100139.16;;;8.34;62.81
39267;BME280;24967;51.154;13.812;2023-02-16T20:35:19;100130.16;;;8.14;64.20
39267;BME280;24967;51.154;13.812;2023-02-16T20:37:45;100135.56;;;8.24;63.59
39267;BME280;24967;51.154;13.812;2023-02-16T20:40:12;100136.97;;;8.28;63.87
39267;BME280;24967;51.154;13.812;2023-02-16T20:42:38;100134.09;;;8.31;64.18
39267;BME280;24967;51.154;13.812;2023-02-16T20:45:05;100135.78;;;8.21;65.17
39267;BME280;24967;51.154;13.812;2023-02-16T20:47:33;100142.53;;;8.25;65.80
39267;BME280;24967;51.154;13.812;2023-02-16T20:50:00;100133.63;;;8.48;64.87
39267;BME280;24967;51.154;13.812;2023-02-16T20:52:26;100138.91;;;8.37;65.37
39267;BME280;24967;51.154;13.812;2023-02-16T20:54:52;100134.13;;;8.54;65.44
39267;BME280;24967;51.154;13.812;2023-02-16T20:57:19;100118.56;;;8.49;65.17
39267;BME280;24967;51.154;13.812;2023-02-16T20:59:45;100124.25;;;8.44;65.08
39267;BME280;24967;51.154;13.812;2023-02-16T21:02:12;100115.91;;;8.49;65.79
39267;BME280;24967;51.154;13.812;2023-02-16T21:04:39;100117.25;;;8.55;65.53
39267;BME280;24967;51.154;13.812;2023-02-16T21:07:06;100123.88;;;8.49;65.90
39267;BME280;24967;51.154;13.812;2023-02-16T21:09:33;100124.22;;;8.33;66.67
39267;BME280;24967;51.154;13.812;2023-02-16T21:11:59;100113.91;;;8.41;67.48
39267;BME280;24967;51.154;13.812;2023-02-16T21:14:26;100117.63;;;8.39;68.09
39267;BME280;24967;51.154;13.812;2023-02-16T21:16:52;100120.28;;;8.39;68.50
39267;BME280;24967;51.154;13.812;2023-02-16T21:19:18;100120.97;;;8.41;69.05
39267;BME280;24967;51.154;13.812;2023-02-16T21:21:46;100113.75;;;8.54;69.30
39267;BME280;24967;51.154;13.812;2023-02-16T21:24:13;100113.59;;;8.67;68.57
39267;BME280;24967;51.154;13.812;2023-02-16T21:26:39;100117.28;;;8.87;68.41
39267;BME280;24967;51.154;13.812;2023-02-16T21:29:05;100110.94;;;8.78;68.72
39267;BME280;24967;51.154;13.812;2023-02-16T21:31:32;100122.59;;;8.87;68.08
39267;BME280;24967;51.154;13.812;2023-02-16T21:33:58;100103.66;;;8.80;68.35
39267;BME280;24967;51.154;13.812;2023-02-16T21:36:25;100113.66;;;8.88;68.45
39267;BME280;24967;51.154;13.812;2023-02-16T21:38:53;100103.28;;;8.96;68.19
39267;BME280;24967;51.154;13.812;2023-02-16T21:41:21;100101.41;;;9.08;67.99
39267;BME280;24967;51.154;13.812;2023-02-16T21:43:55;100094.91;;;9.33;67.16
39267;BME280;24967;51.154;13.812;2023-02-16T21:46:22;100094.94;;;9.22;67.14
39267;BME280;24967;51.154;13.812;2023-02-16T21:48:48;100095.47;;;9.15;67.42
39267;BME280;24967;51.154;13.812;2023-02-16T21:51:16;100095.38;;;9.38;67.01
39267;BME280;24967;51.154;13.812;2023-02-16T21:53:43;100092.50;;;9.30;67.20
39267;BME280;24967;51.154;13.812;2023-02-16T21:56:22;100085.63;;;9.27;67.08
39267;BME280;24967;51.154;13.812;2023-02-16T21:58:47;100082.59;;;9.53;66.43
39267;BME280;24967;51.154;13.812;2023-02-16T22:01:18;100072.16;;;9.61;66.06
39267;BME280;24967;51.154;13.812;2023-02-16T22:03:45;100076.69;;;9.70;65.64
39267;BME280;24967;51.154;13.812;2023-02-16T22:06:11;100061.94;;;9.56;65.48
39267;BME280;24967;51.154;13.812;2023-02-16T22:08:38;100073.53;;;9.55;65.72
39267;BME280;24967;51.154;13.812;2023-02-16T22:11:06;100072.44;;;9.37;66.93
39267;BME280;24967;51.154;13.812;2023-02-16T22:13:35;100076.91;;;9.15;68.08
39267;BME280;24967;51.154;13.812;2023-02-16T22:16:08;100070.75;;;9.15;68.11
39267;BME280;24967;51.154;13.812;2023-02-16T22:18:35;100070.03;;;9.13;68.12
39267;BME280;24967;51.154;13.812;2023-02-16T22:21:01;100066.53;;;9.12;68.65
39267;BME280;24967;51.154;13.812;2023-02-16T22:23:28;100070.88;;;9.13;68.62
39267;BME280;24967;51.154;13.812;2023-02-16T22:25:54;100068.88;;;9.27;68.39
39267;BME280;24967;51.154;13.812;2023-02-16T22:28:21;100069.19;;;9.12;68.47
39267;BME280;24967;51.154;13.812;2023-02-16T22:30:48;100066.44;;;9.14;68.89
39267;BME280;24967;51.154;13.812;2023-02-16T22:33:15;100065.91;;;9.20;68.56
39267;BME280;24967;51.154;13.812;2023-02-16T22:35:41;100060.66;;;9.30;68.21
39267;BME280;24967;51.154;13.812;2023-02-16T22:38:08;100052.13;;;9.47;67.51
39267;BME280;24967;51.154;13.812;2023-02-16T22:40:34;100061.50;;;9.51;67.24
39267;BME280;24967;51.154;13.812;2023-02-16T22:43:00;100057.16;;;9.50;67.19
39267;BME280;24967;51.154;13.812;2023-02-16T22:45:27;100053.00;;;9.57;67.11
39267;BME280;24967;51.154;13.812;2023-02-16T22:47:55;100058.16;;;9.59;66.99
39267;BME280;24967;51.154;13.812;2023-02-16T22:50:22;100049.53;;;9.88;66.02
39267;BME280;24967;51.154;13.812;2023-02-16T22:52:48;100037.59;;;9.82;65.88
39267;BME280;24967;51.154;13.812;2023-02-16T22:55:15;100038.31;;;9.84;65.71
39267;BME280;24967;51.154;13.812;2023-02-16T22:57:41;100035.38;;;9.77;65.79
39267;BME280;24967;51.154;13.812;2023-02-16T23:00:12;100019.91;;;9.61;66.14
39267;BME280;24967;51.154;13.812;2023-02-16T23:02:38;100019.63;;;9.64;66.55
39267;BME280;24967;51.154;13.812;2023-02-16T23:05:06;100022.59;;;9.71;66.18
39267;BME280;24967;51.154;13.812;2023-02-16T23:07:34;100009.03;;;9.64;66.16
39267;BME280;24967;51.154;13.812;2023-02-16T23:10:00;100005.72;;;9.72;66.20
39267;BME280;24967;51.154;13.812;2023-02-16T23:12:27;100006.84;;;9.79;65.88
39267;BME280;24967;51.154;13.812;2023-02-16T23:14:53;99997.13;;;9.90;65.62
39267;BME280;24967;51.154;13.812;2023-02-16T23:17:20;99995.19;;;9.61;66.38
39267;BME280;24967;51.154;13.812;2023-02-16T23:19:48;99999.56;;;9.72;66.41
39267;BME280;24967;51.154;13.812;2023-02-16T23:22:15;100002.22;;;9.72;66.34
39267;BME280;24967;51.154;13.812;2023-02-16T23:24:42;100001.44;;;9.91;65.92
39267;BME280;24967;51.154;13.812;2023-02-16T23:27:08;99992.41;;;10.03;65.16
39267;BME280;24967;51.154;13.812;2023-02-16T23:29:35;99995.34;;;9.59;66.78
39267;BME280;24967;51.154;13.812;2023-02-16T23:32:03;99996.00;;;9.61;66.85
39267;BME280;24967;51.154;13.812;2023-02-16T23:34:30;99996.81;;;9.52;67.51
39267;BME280;24967;51.154;13.812;2023-02-16T23:36:57;99986.91;;;9.54;67.94
39267;BME280;24967;51.154;13.812;2023-02-16T23:39:24;99997.38;;;9.56;67.60
39267;BME280;24967;51.154;13.812;2023-02-16T23:41:51;99990.84;;;9.60;67.84
39267;BME280;24967;51.154;13.812;2023-02-16T23:44:17;99992.78;;;9.58;67.87
39267;BME280;24967;51.154;13.812;2023-02-16T23:46:43;99985.78;;;9.47;68.21
39267;BME280;24967;51.154;13.812;2023-02-16T23:49:10;99979.59;;;9.47;68.16
39267;BME280;24967;51.154;13.812;2023-02-16T23:51:36;99975.00;;;9.49;68.35
39267;BME280;24967;51.154;13.812;2023-02-16T23:54:03;99968.88;;;9.48;68.53
39267;BME280;24967;51.154;13.812;2023-02-16T23:56:31;99965.13;;;9.51;68.44
39267;BME280;24967;51.154;13.812;2023-02-16T23:58:59;99960.88;;;9.38;68.58
